Time;durP1;ratioP1;P1;durP2;ratioP2;P2;SDS_P1;SDS_P2;PMS_P1;PMS_P2;Temp;Humidity;BMP_temperature;BMP_pressure;BME280_temperature;BME280_humidity;BME280_pressure;Samples;Min_cycle;Max_cycle;Signal;HPM_P1;HPM_P2
2023/07/08 00:00:12;;;;;;;9.02;5.53;;;;;;;;;;4995859;28;20118;-78
2023/07/08 00:02:38;;;;;;;8.20;5.68;;;;;;;;;;4996551;28;20058;-78
2023/07/08 00:05:05;;;;;;;9.70;6.13;;;;;;;;;;4996284;28;20077;-78
2023/07/08 00:07:32;;;;;;;9.95;6.63;;;;;;;;;;4996163;28;20062;-79
2023/07/08 00:09:59;;;;;;;9.80;6.13;;;;;;;;;;4997016;28;20093;-78
2023/07/08 00:12:26;;;;;;;8.35;5.22;;;;;;;;;;4997524;28;20058;-78
2023/07/08 00:14:52;;;;;;;8.77;5.75;;;;;;;;;;4996310;28;20038;-79
2023/07/08 00:17:20;;;;;;;11.20;6.30;;;;;;;;;;4998059;28;20137;-78
2023/07/08 00:19:48;;;;;;;10.80;6.38;;;;;;;;;;4998234;28;20165;-78
2023/07/08 00:22:15;;;;;;;9.68;5.93;;;;;;;;;;4998517;28;20054;-78
2023/07/08 00:24:43;;;;;;;8.05;5.22;;;;;;;;;;4997139;28;20493;-78
2023/07/08 00:27:12;;;;;;;10.77;6.30;;;;;;;;;;4993150;28;20143;-77
2023/07/08 00:29:39;;;;;;;9.70;6.32;;;;;;;;;;4992435;28;20548;-76
2023/07/08 00:32:11;;;;;;;9.73;5.93;;;;;;;;;;4993756;28;20054;-78
2023/07/08 00:34:39;;;;;;;8.98;5.50;;;;;;;;;;4993826;28;20186;-78
2023/07/08 00:37:09;;;;;;;8.68;5.80;;;;;;;;;;4995465;28;20080;-78
2023/07/08 00:39:36;;;;;;;10.68;6.30;;;;;;;;;;4993533;28;20058;-77
2023/07/08 00:42:12;;;;;;;9.18;5.22;;;;;;;;;;4993433;28;20057;-78
2023/07/08 00:44:39;;;;;;;8.82;5.25;;;;;;;;;;4992959;28;20130;-77
2023/07/08 00:47:10;;;;;;;10.00;5.15;;;;;;;;;;4990049;28;20046;-77
2023/07/08 00:49:44;;;;;;;8.05;5.20;;;;;;;;;;4990783;28;20149;-77
2023/07/08 00:52:22;;;;;;;9.45;5.43;;;;;;;;;;4994891;28;20070;-78
2023/07/08 00:54:54;;;;;;;8.82;5.32;;;;;;;;;;4994705;28;20053;-77
2023/07/08 00:57:23;;;;;;;10.32;5.50;;;;;;;;;;4990869;28;20128;-77
2023/07/08 00:59:55;;;;;;;9.60;5.50;;;;;;;;;;4990138;28;20569;-76
2023/07/08 01:02:25;;;;;;;8.15;5.30;;;;;;;;;;4995562;28;20458;-77
2023/07/08 01:04:57;;;;;;;9.65;5.30;;;;;;;;;;4995258;28;20042;-77
2023/07/08 01:07:26;;;;;;;7.82;5.20;;;;;;;;;;4991969;28;20154;-77
2023/07/08 01:09:58;;;;;;;7.63;5.18;;;;;;;;;;5002666;28;20069;-77
2023/07/08 01:12:34;;;;;;;7.43;4.80;;;;;;;;;;4995819;28;20493;-77
2023/07/08 01:15:03;;;;;;;9.68;5.15;;;;;;;;;;4990875;28;20129;-77
2023/07/08 01:17:32;;;;;;;8.45;5.53;;;;;;;;;;4991335;28;20089;-77
2023/07/08 01:20:04;;;;;;;8.07;5.45;;;;;;;;;;4992343;28;20038;-78
2023/07/08 01:22:32;;;;;;;7.45;5.15;;;;;;;;;;4992866;28;20532;-77
2023/07/08 01:25:03;;;;;;;8.48;5.28;;;;;;;;;;4994754;28;20101;-79
2023/07/08 01:27:32;;;;;;;9.48;5.38;;;;;;;;;;4995114;28;20050;-78
2023/07/08 01:30:00;;;;;;;7.43;5.00;;;;;;;;;;4989618;28;20197;-78
2023/07/08 01:32:27;;;;;;;7.63;5.25;;;;;;;;;;4989478;28;20379;-77
2023/07/08 01:35:02;;;;;;;8.48;5.50;;;;;;;;;;4989094;28;20050;-77
2023/07/08 01:37:36;;;;;;;8.68;5.20;;;;;;;;;;4989446;28;20046;-78
2023/07/08 01:40:25;;;;;;;8.82;5.53;;;;;;;;;;4987827;28;20057;-78
2023/07/08 01:42:52;;;;;;;8.38;5.15;;;;;;;;;;4989321;28;20046;-78
2023/07/08 01:45:20;;;;;;;8.55;5.18;;;;;;;;;;4989784;28;20208;-77
2023/07/08 01:47:52;;;;;;;9.15;5.72;;;;;;;;;;4994181;28;20050;-78
2023/07/08 01:50:20;;;;;;;7.78;5.30;;;;;;;;;;5007561;28;20137;-77
2023/07/08 01:52:49;;;;;;;7.15;4.90;;;;;;;;;;5014850;28;20050;-77
2023/07/08 01:55:15;;;;;;;8.80;5.37;;;;;;;;;;5013702;28;20053;-78
2023/07/08 01:57:42;;;;;;;7.90;4.93;;;;;;;;;;5003667;28;20051;-78
2023/07/08 02:00:10;;;;;;;8.82;5.10;;;;;;;;;;4999632;28;20081;-79
2023/07/08 02:02:37;;;;;;;8.70;5.53;;;;;;;;;;5000304;28;20089;-77
2023/07/08 02:05:04;;;;;;;10.60;5.25;;;;;;;;;;4996437;28;20082;-78
2023/07/08 02:07:31;;;;;;;8.65;5.55;;;;;;;;;;5006345;28;20449;-78
2023/07/08 02:09:59;;;;;;;6.95;5.15;;;;;;;;;;4994373;28;20481;-77
2023/07/08 02:12:25;;;;;;;9.50;5.70;;;;;;;;;;5011042;28;20049;-78
2023/07/08 02:14:52;;;;;;;7.45;5.03;;;;;;;;;;5011551;28;20046;-77
2023/07/08 02:17:18;;;;;;;9.27;5.70;;;;;;;;;;5019583;28;20042;-77
2023/07/08 02:19:45;;;;;;;8.43;5.70;;;;;;;;;;5017486;28;20046;-78
2023/07/08 02:22:12;;;;;;;9.48;5.43;;;;;;;;;;5008833;28;20077;-79
2023/07/08 02:24:38;;;;;;;8.18;5.63;;;;;;;;;;4995300;28;20101;-79
2023/07/08 02:27:06;;;;;;;9.95;5.45;;;;;;;;;;4993452;28;20480;-77
2023/07/08 02:29:33;;;;;;;7.40;5.38;;;;;;;;;;4993838;28;20137;-77
2023/07/08 02:32:00;;;;;;;8.65;6.20;;;;;;;;;;4993386;28;20101;-78
2023/07/08 02:34:26;;;;;;;10.98;6.20;;;;;;;;;;4999128;28;20074;-78
2023/07/08 02:36:53;;;;;;;9.18;6.28;;;;;;;;;;4996394;28;20074;-78
2023/07/08 02:39:19;;;;;;;9.00;5.90;;;;;;;;;;4995503;28;20133;-77
2023/07/08 02:41:46;;;;;;;9.98;6.20;;;;;;;;;;4994893;28;20133;-78
2023/07/08 02:44:14;;;;;;;9.52;6.10;;;;;;;;;;4995894;28;20057;-78
2023/07/08 02:46:41;;;;;;;8.55;5.80;;;;;;;;;;4995532;28;20058;-78
2023/07/08 02:49:08;;;;;;;9.35;6.53;;;;;;;;;;4995359;28;20104;-78
2023/07/08 02:51:34;;;;;;;8.98;5.90;;;;;;;;;;4995064;28;20043;-79
2023/07/08 02:54:01;;;;;;;8.70;5.68;;;;;;;;;;5000692;28;20097;-79
2023/07/08 02:56:27;;;;;;;8.93;5.80;;;;;;;;;;5001604;28;20083;-79
2023/07/08 02:58:54;;;;;;;8.27;5.82;;;;;;;;;;5002683;28;20074;-79
2023/07/08 03:01:23;;;;;;;9.07;5.60;;;;;;;;;;5000854;28;20588;-79
2023/07/08 03:03:49;;;;;;;9.43;5.95;;;;;;;;;;4996831;28;20540;-77
2023/07/08 03:06:16;;;;;;;7.65;5.82;;;;;;;;;;4998313;28;20069;-78
2023/07/08 03:08:43;;;;;;;8.45;5.90;;;;;;;;;;4998621;28;20043;-78
2023/07/08 03:11:13;;;;;;;7.82;5.05;;;;;;;;;;4998971;28;20138;-78
2023/07/08 03:13:40;;;;;;;;;;;;;;;;;;5001468;28;20085;-79
2023/07/08 03:16:12;;;;;;;9.88;6.25;;;;;;;;;;5001637;28;20262;-78
2023/07/08 03:18:45;;;;;;;8.80;5.85;;;;;;;;;;5001090;28;20137;-78
2023/07/08 03:21:13;;;;;;;8.80;5.20;;;;;;;;;;4997572;28;20060;-78
2023/07/08 03:23:40;;;;;;;8.57;4.85;;;;;;;;;;4977662;28;20046;-78
2023/07/08 03:26:06;;;;;;;8.38;5.65;;;;;;;;;;4994141;28;20070;-77
2023/07/08 03:28:33;;;;;;;8.82;5.28;;;;;;;;;;4997491;28;20092;-79
2023/07/08 03:31:00;;;;;;;8.77;5.82;;;;;;;;;;4996708;28;20390;-77
2023/07/08 03:33:26;;;;;;;9.85;5.65;;;;;;;;;;4997182;28;20129;-77
2023/07/08 03:35:55;;;;;;;9.95;5.75;;;;;;;;;;4996258;28;20078;-77
2023/07/08 03:38:23;;;;;;;8.18;5.75;;;;;;;;;;4996992;28;20129;-77
2023/07/08 03:40:50;;;;;;;8.70;5.10;;;;;;;;;;4996688;28;20070;-76
2023/07/08 03:43:16;;;;;;;8.43;5.55;;;;;;;;;;4996712;28;20096;-77
2023/07/08 03:45:43;;;;;;;8.93;5.60;;;;;;;;;;4995992;28;20129;-77
2023/07/08 03:48:11;;;;;;;7.65;5.55;;;;;;;;;;5004534;28;20133;-78
2023/07/08 03:50:38;;;;;;;7.60;5.45;;;;;;;;;;5004741;28;20126;-77
2023/07/08 03:53:06;;;;;;;8.65;5.40;;;;;;;;;;5004570;28;20054;-77
2023/07/08 03:55:32;;;;;;;9.85;5.32;;;;;;;;;;5000207;28;20133;-77
2023/07/08 03:57:59;;;;;;;8.05;5.18;;;;;;;;;;5001027;28;20042;-76
2023/07/08 04:00:26;;;;;;;9.30;5.43;;;;;;;;;;5008282;28;20050;-77
2023/07/08 04:02:52;;;;;;;7.13;4.85;;;;;;;;;;5015236;28;20105;-76
2023/07/08 04:05:21;;;;;;;8.13;5.38;;;;;;;;;;4996719;28;20125;-77
2023/07/08 04:07:48;;;;;;;8.60;5.65;;;;;;;;;;5010027;28;20110;-79
2023/07/08 04:10:17;;;;;;;7.20;4.93;;;;;;;;;;5020231;28;20064;-78
2023/07/08 04:12:44;;;;;;;8.13;5.43;;;;;;;;;;5020860;28;20050;-77
2023/07/08 04:15:12;;;;;;;9.98;5.63;;;;;;;;;;5018835;28;20480;-79
2023/07/08 04:17:43;;;;;;;7.75;5.13;;;;;;;;;;5000856;28;20077;-77
2023/07/08 04:20:11;;;;;;;7.53;5.00;;;;;;;;;;5000667;28;20050;-78
2023/07/08 04:22:38;;;;;;;9.35;5.43;;;;;;;;;;5000087;28;20109;-77
2023/07/08 04:25:05;;;;;;;8.98;5.55;;;;;;;;;;5000083;28;20505;-77
2023/07/08 04:27:33;;;;;;;8.63;4.85;;;;;;;;;;5002400;28;20101;-78
2023/07/08 04:30:00;;;;;;;8.27;5.28;;;;;;;;;;5003478;28;20066;-79
2023/07/08 04:32:27;;;;;;;7.95;5.50;;;;;;;;;;5000496;28;20117;-78
2023/07/08 04:34:53;;;;;;;9.07;5.22;;;;;;;;;;4999886;28;20050;-78
2023/07/08 04:37:20;;;;;;;8.68;5.20;;;;;;;;;;5000947;28;20052;-77
2023/07/08 04:39:47;;;;;;;7.25;5.07;;;;;;;;;;4999919;28;20050;-78
2023/07/08 04:42:17;;;;;;;8.98;5.45;;;;;;;;;;5000070;28;20125;-78
2023/07/08 04:44:45;;;;;;;10.05;5.78;;;;;;;;;;5004838;28;20080;-78
2023/07/08 04:47:14;;;;;;;8.20;5.60;;;;;;;;;;5002446;28;20092;-76
2023/07/08 04:49:43;;;;;;;8.88;5.57;;;;;;;;;;5012745;28;20094;-76
2023/07/08 04:52:10;;;;;;;8.53;5.27;;;;;;;;;;5006909;28;20057;-78
2023/07/08 04:54:37;;;;;;;7.78;4.85;;;;;;;;;;5018397;28;20489;-76
2023/07/08 04:57:04;;;;;;;8.52;5.88;;;;;;;;;;5016223;28;20142;-77
2023/07/08 04:59:34;;;;;;;9.93;5.47;;;;;;;;;;4998780;28;20132;-77
2023/07/08 05:02:02;;;;;;;9.85;5.65;;;;;;;;;;4998565;28;20085;-78
2023/07/08 05:04:29;;;;;;;8.20;5.80;;;;;;;;;;4995399;28;20047;-77
2023/07/08 05:06:55;;;;;;;8.82;5.60;;;;;;;;;;4998355;28;20125;-78
2023/07/08 05:09:25;;;;;;;9.50;5.93;;;;;;;;;;4998315;28;20129;-78
2023/07/08 05:11:52;;;;;;;9.43;6.25;;;;;;;;;;5000687;28;20116;-78
2023/07/08 05:14:19;;;;;;;8.82;5.75;;;;;;;;;;4999998;28;20133;-79
2023/07/08 05:16:45;;;;;;;8.30;5.55;;;;;;;;;;5000302;28;20121;-78
2023/07/08 05:19:13;;;;;;;8.18;5.75;;;;;;;;;;4998496;28;20077;-78
2023/07/08 05:21:40;;;;;;;8.10;5.03;;;;;;;;;;4999990;28;20062;-78
2023/07/08 05:24:08;;;;;;;7.70;5.72;;;;;;;;;;4998514;28;20105;-78
2023/07/08 05:26:35;;;;;;;8.77;5.43;;;;;;;;;;4998806;28;20402;-78
2023/07/08 05:29:01;;;;;;;8.52;5.68;;;;;;;;;;4994924;28;20058;-77
2023/07/08 05:31:28;;;;;;;7.93;4.85;;;;;;;;;;4995307;28;20074;-77
2023/07/08 05:33:55;;;;;;;7.57;5.40;;;;;;;;;;4995554;28;20050;-78
2023/07/08 05:36:23;;;;;;;8.40;5.45;;;;;;;;;;4995638;28;20603;-77
2023/07/08 05:38:50;;;;;;;10.23;5.93;;;;;;;;;;4998749;28;20189;-79
2023/07/08 05:41:16;;;;;;;7.90;5.50;;;;;;;;;;4998893;28;20077;-77
2023/07/08 05:43:43;;;;;;;9.35;6.00;;;;;;;;;;4999369;28;20093;-77
2023/07/08 05:46:11;;;;;;;7.78;5.63;;;;;;;;;;4998405;28;20100;-78
2023/07/08 05:48:38;;;;;;;7.88;5.75;;;;;;;;;;5000445;28;20054;-78
2023/07/08 05:51:04;;;;;;;7.82;5.55;;;;;;;;;;5000483;28;20046;-77
2023/07/08 05:53:32;;;;;;;8.88;6.13;;;;;;;;;;5000327;28;20125;-78
2023/07/08 05:55:59;;;;;;;9.07;5.57;;;;;;;;;;4999372;28;20139;-78
2023/07/08 05:58:26;;;;;;;9.82;5.68;;;;;;;;;;4999560;28;20070;-78
2023/07/08 06:00:57;;;;;;;9.30;5.43;;;;;;;;;;4999405;28;20084;-78
2023/07/08 06:03:23;;;;;;;7.95;5.32;;;;;;;;;;4996705;28;20043;-78
2023/07/08 06:05:50;;;;;;;10.13;6.20;;;;;;;;;;4998713;28;20517;-78
2023/07/08 06:08:17;;;;;;;8.80;5.80;;;;;;;;;;4998756;28;20050;-76
2023/07/08 06:10:46;;;;;;;9.32;6.32;;;;;;;;;;4994934;28;20047;-77
2023/07/08 06:13:13;;;;;;;9.73;5.97;;;;;;;;;;4996755;28;20476;-79
2023/07/08 06:15:40;;;;;;;9.63;6.55;;;;;;;;;;4997206;28;20046;-78
2023/07/08 06:18:07;;;;;;;9.68;5.63;;;;;;;;;;4998750;28;20537;-78
2023/07/08 06:20:33;;;;;;;8.15;5.63;;;;;;;;;;4998667;28;20133;-77
2023/07/08 06:23:00;;;;;;;8.85;6.43;;;;;;;;;;5006873;28;20458;-78
2023/07/08 06:25:28;;;;;;;9.65;5.78;;;;;;;;;;5008905;28;20081;-78
2023/07/08 06:27:56;;;;;;;8.30;5.57;;;;;;;;;;5007466;28;20126;-78
2023/07/08 06:30:23;;;;;;;10.50;5.72;;;;;;;;;;5007639;28;20074;-78
2023/07/08 06:32:50;;;;;;;10.00;6.60;;;;;;;;;;5001809;28;20065;-79
2023/07/08 06:35:17;;;;;;;8.98;6.47;;;;;;;;;;5008246;28;20082;-78
2023/07/08 06:37:44;;;;;;;10.98;7.30;;;;;;;;;;5012581;28;20050;-79
2023/07/08 06:40:12;;;;;;;10.20;7.15;;;;;;;;;;5006938;28;20081;-79
2023/07/08 06:42:38;;;;;;;9.10;6.57;;;;;;;;;;5008831;28;20043;-78
2023/07/08 06:45:07;;;;;;;8.07;6.00;;;;;;;;;;5009646;28;20134;-79
2023/07/08 06:47:34;;;;;;;8.48;5.85;;;;;;;;;;5002761;28;20047;-78
2023/07/08 06:50:01;;;;;;;8.13;5.97;;;;;;;;;;5002514;28;20076;-78
2023/07/08 06:52:27;;;;;;;8.75;6.10;;;;;;;;;;5002445;28;20070;-79
2023/07/08 06:54:54;;;;;;;8.38;5.93;;;;;;;;;;5001757;28;20078;-78
2023/07/08 06:57:20;;;;;;;12.48;7.10;;;;;;;;;;5002736;28;20086;-79
2023/07/08 06:59:47;;;;;;;11.10;7.00;;;;;;;;;;5003681;28;20505;-79
2023/07/08 07:02:16;;;;;;;11.68;6.65;;;;;;;;;;5010204;28;20462;-79
2023/07/08 07:04:43;;;;;;;8.83;6.00;;;;;;;;;;5012869;28;20053;-78
2023/07/08 07:07:10;;;;;;;11.57;6.22;;;;;;;;;;5002369;28;20073;-78
2023/07/08 07:09:37;;;;;;;10.88;7.22;;;;;;;;;;5010796;28;20069;-79
2023/07/08 07:12:04;;;;;;;9.95;6.47;;;;;;;;;;5009934;28;20367;-78
2023/07/08 07:14:31;;;;;;;10.68;6.60;;;;;;;;;;5016428;28;20492;-79
2023/07/08 07:16:57;;;;;;;10.85;7.20;;;;;;;;;;5001782;28;20134;-78
2023/07/08 07:19:25;;;;;;;10.27;7.63;;;;;;;;;;5008648;28;20061;-79
2023/07/08 07:21:52;;;;;;;10.52;6.82;;;;;;;;;;5015052;28;20128;-79
2023/07/08 07:24:19;;;;;;;10.30;6.95;;;;;;;;;;5000696;28;20497;-78
2023/07/08 07:26:46;;;;;;;9.68;6.47;;;;;;;;;;5002680;28;20078;-77
2023/07/08 07:29:18;;;;;;;10.25;6.63;;;;;;;;;;5004882;28;20496;-77
2023/07/08 07:31:44;;;;;;;10.15;6.40;;;;;;;;;;5003316;28;20489;-77
2023/07/08 07:34:11;;;;;;;10.27;6.47;;;;;;;;;;5000207;28;20052;-77
2023/07/08 07:36:39;;;;;;;8.88;6.00;;;;;;;;;;5011263;28;20104;-78
2023/07/08 07:39:09;;;;;;;10.52;6.35;;;;;;;;;;5008790;28;20085;-78
2023/07/08 07:41:36;;;;;;;11.20;6.40;;;;;;;;;;5014454;28;20081;-78
2023/07/08 07:44:02;;;;;;;10.40;6.35;;;;;;;;;;5006950;28;20481;-77
2023/07/08 07:46:29;;;;;;;8.43;6.05;;;;;;;;;;5004988;28;20042;-78
2023/07/08 07:48:56;;;;;;;10.00;6.32;;;;;;;;;;5013028;28;20091;-78
2023/07/08 07:51:22;;;;;;;10.38;6.85;;;;;;;;;;4988644;28;20548;-77
2023/07/08 07:53:52;;;;;;;9.57;6.43;;;;;;;;;;5002401;28;20042;-83
2023/07/08 07:56:19;;;;;;;11.95;6.30;;;;;;;;;;5014766;28;20057;-81
2023/07/08 07:58:46;;;;;;;9.05;6.15;;;;;;;;;;5004441;28;20116;-80
2023/07/08 08:01:14;;;;;;;11.63;6.88;;;;;;;;;;4994096;28;20532;-81
2023/07/08 08:03:43;;;;;;;10.82;8.05;;;;;;;;;;5004301;28;20089;-82
2023/07/08 08:06:10;;;;;;;11.23;6.97;;;;;;;;;;5005320;28;20057;-82
2023/07/08 08:08:36;;;;;;;11.00;8.18;;;;;;;;;;5004761;28;20533;-80
2023/07/08 08:11:05;;;;;;;13.90;9.15;;;;;;;;;;5005071;28;20046;-87
2023/07/08 08:13:31;;;;;;;11.98;8.40;;;;;;;;;;5012349;28;20489;-81
2023/07/08 08:15:59;;;;;;;13.30;9.05;;;;;;;;;;4988018;28;20101;-79
2023/07/08 08:18:26;;;;;;;10.25;7.57;;;;;;;;;;5000862;28;20557;-80
2023/07/08 08:20:52;;;;;;;14.15;9.63;;;;;;;;;;5008207;28;20045;-80
2023/07/08 08:23:19;;;;;;;12.95;7.70;;;;;;;;;;5014733;28;20069;-79
2023/07/08 08:25:46;;;;;;;13.80;7.47;;;;;;;;;;5006461;28;20082;-81
2023/07/08 08:28:14;;;;;;;10.80;6.63;;;;;;;;;;5000814;28;20088;-81
2023/07/08 08:30:41;;;;;;;11.48;7.85;;;;;;;;;;5013359;28;20058;-79
2023/07/08 08:33:07;;;;;;;11.88;6.95;;;;;;;;;;4995346;28;20065;-80
2023/07/08 08:35:34;;;;;;;11.23;7.40;;;;;;;;;;5004706;28;20078;-80
2023/07/08 08:38:02;;;;;;;12.55;7.30;;;;;;;;;;5007775;28;20053;-78
2023/07/08 08:40:31;;;;;;;11.13;6.90;;;;;;;;;;5017311;28;20054;-79
2023/07/08 08:43:03;;;;;;;19.80;7.43;;;;;;;;;;4990864;28;20058;-79
2023/07/08 08:45:36;;;;;;;11.88;7.72;;;;;;;;;;4986526;28;20043;-79
2023/07/08 08:48:06;;;;;;;11.13;7.40;;;;;;;;;;4980192;28;20054;-79
2023/07/08 08:50:39;;;;;;;11.75;7.45;;;;;;;;;;4979515;28;20051;-80
2023/07/08 08:53:11;;;;;;;10.85;7.00;;;;;;;;;;4980730;28;20081;-80
2023/07/08 08:55:38;;;;;;;9.70;6.93;;;;;;;;;;4980319;28;20106;-80
2023/07/08 08:58:18;;;;;;;11.63;6.82;;;;;;;;;;4980247;28;20406;-80
2023/07/08 09:00:54;;;;;;;9.55;6.35;;;;;;;;;;4986740;28;20051;-79
2023/07/08 09:03:36;;;;;;;10.52;7.25;;;;;;;;;;4994562;28;20060;-79
2023/07/08 09:06:11;;;;;;;11.13;7.10;;;;;;;;;;5011275;28;20050;-79
2023/07/08 09:08:38;;;;;;;8.65;6.55;;;;;;;;;;5001353;28;20081;-78
2023/07/08 09:11:16;;;;;;;9.40;6.90;;;;;;;;;;5001467;28;20085;-80
2023/07/08 09:13:42;;;;;;;8.65;6.13;;;;;;;;;;4999339;28;20060;-80
2023/07/08 09:16:18;;;;;;;11.35;6.97;;;;;;;;;;5000078;28;20050;-80
2023/07/08 09:18:59;;;;;;;8.32;6.70;;;;;;;;;;5000331;28;20111;-78
2023/07/08 09:21:30;;;;;;;8.48;6.15;;;;;;;;;;4998836;28;20042;-78
2023/07/08 09:24:02;;;;;;;8.65;6.28;;;;;;;;;;4999626;28;20042;-78
2023/07/08 09:26:33;;;;;;;8.85;6.30;;;;;;;;;;4999192;28;20133;-79
2023/07/08 09:29:00;;;;;;;12.50;6.90;;;;;;;;;;4998598;28;20069;-79
2023/07/08 09:31:32;;;;;;;9.40;6.15;;;;;;;;;;5000359;28;20073;-80
2023/07/08 09:34:07;;;;;;;8.63;6.63;;;;;;;;;;4999738;28;20046;-79
2023/07/08 09:36:34;;;;;;;9.02;6.38;;;;;;;;;;5001276;28;20074;-80
2023/07/08 09:39:01;;;;;;;9.70;6.47;;;;;;;;;;4998732;28;20122;-79
2023/07/08 09:41:34;;;;;;;9.52;6.53;;;;;;;;;;4999815;28;20137;-81
2023/07/08 09:44:06;;;;;;;9.30;6.75;;;;;;;;;;4998786;28;20054;-79
2023/07/08 09:46:38;;;;;;;10.65;7.15;;;;;;;;;;4998841;28;20134;-81
2023/07/08 09:49:18;;;;;;;8.80;5.88;;;;;;;;;;5002808;28;20081;-82
2023/07/08 09:51:44;;;;;;;10.98;7.07;;;;;;;;;;5003876;28;20549;-81
2023/07/08 09:54:11;;;;;;;15.35;9.80;;;;;;;;;;4996991;28;20077;-79
2023/07/08 09:56:43;;;;;;;13.20;6.72;;;;;;;;;;4996358;28;20072;-79
2023/07/08 09:59:14;;;;;;;10.70;6.85;;;;;;;;;;4995876;28;20042;-79
2023/07/08 10:01:43;;;;;;;11.57;6.10;;;;;;;;;;4993941;28;20057;-79
2023/07/08 10:04:10;;;;;;;10.07;7.50;;;;;;;;;;4994506;28;20089;-79
2023/07/08 10:06:36;;;;;;;9.48;6.28;;;;;;;;;;4994392;28;20125;-78
2023/07/08 10:09:24;;;;;;;11.25;6.90;;;;;;;;;;4994489;28;20516;-79
2023/07/08 10:11:56;;;;;;;10.15;7.00;;;;;;;;;;4996180;28;20456;-78
2023/07/08 10:14:28;;;;;;;10.68;6.82;;;;;;;;;;5003534;28;20046;-79
2023/07/08 10:16:56;;;;;;;10.75;7.32;;;;;;;;;;5007065;28;20074;-78
2023/07/08 10:19:24;;;;;;;9.85;6.65;;;;;;;;;;5002984;28;20074;-81
2023/07/08 10:22:00;;;;;;;10.23;6.22;;;;;;;;;;5007780;28;20048;-79
2023/07/08 10:24:41;;;;;;;9.82;6.68;;;;;;;;;;5003849;28;20050;-81
2023/07/08 10:27:15;;;;;;;9.63;6.18;;;;;;;;;;4998199;28;20055;-77
2023/07/08 10:29:53;;;;;;;9.55;6.35;;;;;;;;;;4990961;28;20073;-76
2023/07/08 10:32:29;;;;;;;10.77;7.13;;;;;;;;;;5000989;28;20128;-78
2023/07/08 10:35:02;;;;;;;9.23;6.28;;;;;;;;;;4998489;28;20125;-79
2023/07/08 10:37:35;;;;;;;10.32;5.90;;;;;;;;;;5004397;28;20061;-79
2023/07/08 10:40:37;;;;;;;12.13;6.50;;;;;;;;;;5014091;28;20480;-79
2023/07/08 10:43:33;;;;;;;7.00;5.30;;;;;;;;;;4993792;28;20050;-79
2023/07/08 10:46:14;;;;;;;8.52;5.35;;;;;;;;;;4997977;28;20050;-78
2023/07/08 10:48:56;;;;;;;9.20;5.97;;;;;;;;;;4994149;28;20146;-78
2023/07/08 10:51:33;;;;;;;8.38;5.45;;;;;;;;;;4993545;28;20101;-77
2023/07/08 10:54:13;;;;;;;8.27;5.40;;;;;;;;;;4996916;28;20128;-79
2023/07/08 10:56:47;;;;;;;8.10;6.00;;;;;;;;;;4999758;28;20085;-78
2023/07/08 10:59:34;;;;;;;9.80;6.10;;;;;;;;;;4992767;28;20125;-78
2023/07/08 11:02:34;;;;;;;9.70;6.25;;;;;;;;;;4994934;28;20046;-78
2023/07/08 11:05:14;;;;;;;8.75;5.60;;;;;;;;;;4995284;28;20048;-78
2023/07/08 11:07:46;;;;;;;9.38;5.80;;;;;;;;;;5011382;28;20050;-81
2023/07/08 11:10:19;;;;;;;7.30;5.05;;;;;;;;;;4997650;28;20081;-83
2023/07/08 11:12:48;;;;;;;11.32;5.97;;;;;;;;;;5005158;28;20453;-78
2023/07/08 11:15:22;;;;;;;8.60;6.45;;;;;;;;;;5002227;28;20082;-79
2023/07/08 11:17:54;;;;;;;8.30;6.05;;;;;;;;;;5007410;28;20049;-78
2023/07/08 11:20:28;;;;;;;8.98;5.72;;;;;;;;;;5003230;28;20081;-78
2023/07/08 11:23:01;;;;;;;8.48;5.70;;;;;;;;;;5012715;28;20125;-78
2023/07/08 11:25:29;;;;;;;8.95;6.47;;;;;;;;;;4995209;28;20133;-79
2023/07/08 11:27:59;;;;;;;8.80;6.10;;;;;;;;;;4995487;28;20116;-77
2023/07/08 11:30:29;;;;;;;;;;;;;;;;;;5012805;28;20041;-77
2023/07/08 11:33:05;;;;;;;8.05;6.15;;;;;;;;;;5012595;28;19921;-77
2023/07/08 11:35:39;;;;;;;9.57;6.32;;;;;;;;;;5001088;28;20078;-80
2023/07/08 11:38:07;;;;;;;9.35;5.95;;;;;;;;;;5003042;28;20061;-81
2023/07/08 11:40:50;;;;;;;8.40;5.80;;;;;;;;;;5010657;28;20121;-81
2023/07/08 11:43:20;;;;;;;8.80;5.82;;;;;;;;;;4992498;28;20042;-79
2023/07/08 11:45:50;;;;;;;8.45;5.57;;;;;;;;;;5008171;28;20097;-78
2023/07/08 11:48:22;;;;;;;9.25;5.50;;;;;;;;;;5000561;28;20050;-77
2023/07/08 11:50:52;;;;;;;9.60;5.63;;;;;;;;;;5000147;28;20105;-79
2023/07/08 11:53:35;;;;;;;6.88;4.88;;;;;;;;;;5001300;28;20046;-79
2023/07/08 11:56:04;;;;;;;8.32;5.70;;;;;;;;;;4999573;28;20045;-78
2023/07/08 11:58:32;;;;;;;8.75;5.50;;;;;;;;;;5001880;28;20057;-78
2023/07/08 12:01:16;;;;;;;10.00;5.97;;;;;;;;;;4982903;28;20046;-79
2023/07/08 12:03:50;;;;;;;8.07;5.55;;;;;;;;;;4992939;28;20046;-79
2023/07/08 12:06:47;;;;;;;9.23;5.57;;;;;;;;;;4998354;28;20046;-78
2023/07/08 12:09:24;;;;;;;7.43;5.18;;;;;;;;;;4980474;28;20589;-77
2023/07/08 12:11:59;;;;;;;8.55;5.68;;;;;;;;;;4991914;28;20047;-77
2023/07/08 12:14:27;;;;;;;8.07;5.40;;;;;;;;;;5000444;28;20133;-77
2023/07/08 12:16:55;;;;;;;9.30;5.20;;;;;;;;;;5005304;28;20073;-77
2023/07/08 12:19:25;;;;;;;8.73;5.97;;;;;;;;;;5006596;28;20053;-78
2023/07/08 12:21:53;;;;;;;8.15;5.53;;;;;;;;;;5005804;28;20058;-78
2023/07/08 12:24:26;;;;;;;8.30;6.22;;;;;;;;;;5003123;28;20046;-78
2023/07/08 12:26:55;;;;;;;7.82;5.60;;;;;;;;;;5004050;28;20106;-78
2023/07/08 12:29:23;;;;;;;7.05;5.55;;;;;;;;;;5003476;28;20141;-77
2023/07/08 12:31:50;;;;;;;9.27;6.03;;;;;;;;;;5006483;28;20563;-78
2023/07/08 12:34:18;;;;;;;7.60;5.90;;;;;;;;;;4996084;28;20046;-78
2023/07/08 12:36:46;;;;;;;8.45;5.95;;;;;;;;;;5000529;28;20038;-78
2023/07/08 12:39:17;;;;;;;7.82;5.50;;;;;;;;;;5001919;28;20073;-78
2023/07/08 12:41:45;;;;;;;7.90;5.63;;;;;;;;;;5002299;28;20054;-77
2023/07/08 12:44:19;;;;;;;8.77;5.50;;;;;;;;;;4999593;28;20090;-78
2023/07/08 12:46:47;;;;;;;8.05;5.68;;;;;;;;;;5003849;28;20050;-78
2023/07/08 12:49:15;;;;;;;9.18;5.88;;;;;;;;;;4999607;28;20046;-78
2023/07/08 12:51:45;;;;;;;7.65;5.45;;;;;;;;;;5000716;28;20070;-78
2023/07/08 12:54:14;;;;;;;9.88;5.97;;;;;;;;;;4999975;28;20050;-78
2023/07/08 12:56:45;;;;;;;8.20;5.85;;;;;;;;;;4995314;28;20101;-79
2023/07/08 12:59:15;;;;;;;9.00;5.55;;;;;;;;;;4996650;28;20093;-78
2023/07/08 13:01:46;;;;;;;9.43;6.13;;;;;;;;;;4994183;28;20128;-78
2023/07/08 13:04:14;;;;;;;10.15;6.43;;;;;;;;;;4996688;28;20054;-77
2023/07/08 13:06:43;;;;;;;7.90;5.38;;;;;;;;;;4995674;28;20046;-77
2023/07/08 13:09:24;;;;;;;7.80;5.60;;;;;;;;;;4994774;28;20054;-77
2023/07/08 13:11:53;;;;;;;8.85;5.82;;;;;;;;;;4992540;28;20452;-77
2023/07/08 13:14:21;;;;;;;8.30;5.83;;;;;;;;;;4994334;28;20049;-78
2023/07/08 13:16:49;;;;;;;8.77;5.47;;;;;;;;;;4996272;28;20092;-81
2023/07/08 13:19:16;;;;;;;8.00;5.20;;;;;;;;;;4994449;28;20089;-78
2023/07/08 13:21:46;;;;;;;8.02;5.43;;;;;;;;;;4995323;28;20125;-77
2023/07/08 13:24:14;;;;;;;7.47;5.75;;;;;;;;;;4995387;28;20050;-77
2023/07/08 13:26:47;;;;;;;9.52;7.50;;;;;;;;;;4995290;28;20457;-76
2023/07/08 13:29:16;;;;;;;8.57;5.60;;;;;;;;;;4995263;28;20046;-79
2023/07/08 13:31:49;;;;;;;9.25;5.82;;;;;;;;;;4996854;28;20066;-78
2023/07/08 13:34:19;;;;;;;7.75;5.50;;;;;;;;;;4995364;28;20494;-78
2023/07/08 13:36:46;;;;;;;;;;;;;;;;;;4995833;28;20105;-77
2023/07/08 13:39:17;;;;;;;6.97;5.28;;;;;;;;;;4994271;28;19922;-77
2023/07/08 13:41:46;;;;;;;7.75;5.40;;;;;;;;;;4994038;28;20114;-78
2023/07/08 13:44:13;;;;;;;8.52;5.40;;;;;;;;;;4993427;28;20082;-78
2023/07/08 13:46:46;;;;;;;7.97;4.80;;;;;;;;;;4994584;28;20042;-77
2023/07/08 13:49:15;;;;;;;7.85;5.20;;;;;;;;;;4994311;28;20129;-77
2023/07/08 13:51:45;;;;;;;7.03;5.35;;;;;;;;;;4993375;28;20516;-79
2023/07/08 13:54:21;;;;;;;7.20;4.97;;;;;;;;;;4992674;28;20046;-79
2023/07/08 13:56:51;;;;;;;7.72;5.35;;;;;;;;;;4994249;28;20133;-79
2023/07/08 13:59:22;;;;;;;7.63;5.15;;;;;;;;;;4994969;28;20049;-78
2023/07/08 14:01:51;;;;;;;8.20;5.35;;;;;;;;;;4995417;28;20513;-80
2023/07/08 14:04:21;;;;;;;7.93;5.45;;;;;;;;;;4994871;28;20049;-78
2023/07/08 14:06:48;;;;;;;7.97;5.72;;;;;;;;;;5016742;28;20136;-77
2023/07/08 14:09:17;;;;;;;8.75;5.50;;;;;;;;;;5014322;28;20128;-79
2023/07/08 14:11:44;;;;;;;8.60;5.32;;;;;;;;;;5012978;28;20053;-77
2023/07/08 14:14:13;;;;;;;8.27;5.78;;;;;;;;;;4993409;28;20051;-77
2023/07/08 14:16:43;;;;;;;7.13;5.35;;;;;;;;;;4993827;28;20118;-78
2023/07/08 14:19:16;;;;;;;8.23;5.40;;;;;;;;;;4993585;28;20042;-79
2023/07/08 14:21:42;;;;;;;10.07;5.35;;;;;;;;;;4992520;28;20039;-78
2023/07/08 14:24:12;;;;;;;7.97;5.07;;;;;;;;;;4994576;28;20132;-78
2023/07/08 14:26:39;;;;;;;7.97;5.05;;;;;;;;;;4993385;28;20050;-77
2023/07/08 14:29:06;;;;;;;7.30;5.28;;;;;;;;;;4994407;28;20156;-77
2023/07/08 14:31:34;;;;;;;8.75;4.82;;;;;;;;;;4993605;28;20085;-77
2023/07/08 14:34:05;;;;;;;8.82;5.57;;;;;;;;;;4992550;28;20121;-79
2023/07/08 14:36:32;;;;;;;7.20;5.30;;;;;;;;;;4992962;28;20082;-77
2023/07/08 14:39:00;;;;;;;6.80;4.50;;;;;;;;;;4992856;28;20057;-78
2023/07/08 14:41:27;;;;;;;8.82;4.97;;;;;;;;;;4992825;28;20054;-78
2023/07/08 14:43:55;;;;;;;9.07;5.28;;;;;;;;;;4992499;28;20133;-78
2023/07/08 14:46:22;;;;;;;7.20;4.95;;;;;;;;;;4992502;28;20542;-77
2023/07/08 14:48:50;;;;;;;8.07;4.93;;;;;;;;;;4995878;28;20133;-78
2023/07/08 14:51:17;;;;;;;9.02;5.18;;;;;;;;;;4996159;28;20105;-78
2023/07/08 14:53:43;;;;;;;7.13;4.82;;;;;;;;;;4996807;28;20050;-77